DCCHB EDAZ-EDXW
Flight info
| Callsign | DCCHB |
|---|---|
| Flight time | 0h 41m |
| Altitude | 43000 |
| Route | DCT BUREL/N0428F430 IFR DCT GARGU DCT GARLU DCT RIDNI DCT AMLUH DCT ALF DCT OMWEG DCT BADOS DCT OLDIP |
| Aircraft | LJ35/M-SGHRWXY/SB1 |
Departure
| Time | 2026-05-05 18:21 |
|---|---|
| Airport | Schönhagen Airfield (EDAZ) |
Arrival
| Time | 2026-05-05 19:02 |
|---|---|
| Airport | Westerland Sylt Airport (EDXW) |
| Time | Latitude | Longitude | Altitude | Speed | Heading |
|---|---|---|---|---|---|
| 2026-05-05 18:13 | 52.20408 | 13.15430 | 139 ft | 0 kts | 166° |
| 2026-05-05 18:16 | 52.20388 | 13.15463 | 138 ft | 10 kts | 91° |
| 2026-05-05 18:16 | 52.20410 | 13.15616 | 136 ft | 19 kts | 75° |
| 2026-05-05 18:17 | 52.20446 | 13.15848 | 137 ft | 21 kts | 76° |
| 2026-05-05 18:17 | 52.20482 | 13.16070 | 139 ft | 20 kts | 75° |
| 2026-05-05 18:17 | 52.20518 | 13.16301 | 139 ft | 21 kts | 75° |
| 2026-05-05 18:17 | 52.20552 | 13.16528 | 141 ft | 20 kts | 75° |
| 2026-05-05 18:18 | 52.20585 | 13.16737 | 149 ft | 17 kts | 75° |
| 2026-05-05 18:18 | 52.20607 | 13.16885 | 152 ft | 12 kts | 75° |
| 2026-05-05 18:18 | 52.20603 | 13.16994 | 154 ft | 7 kts | 118° |
| 2026-05-05 18:18 | 52.20601 | 13.16999 | 154 ft | 0 kts | 119° |
| 2026-05-05 18:20 | 52.20584 | 13.17047 | 156 ft | 8 kts | 122° |
| 2026-05-05 18:20 | 52.20549 | 13.17024 | 155 ft | 7 kts | 257° |
| 2026-05-05 18:20 | 52.20529 | 13.16898 | 151 ft | 52 kts | 255° |
| 2026-05-05 18:20 | 52.20341 | 13.15687 | 139 ft | 163 kts | 257° |
| 2026-05-05 18:21 | 52.19959 | 13.13919 | 733 ft | 163 kts | 235° |
| 2026-05-05 18:21 | 52.19112 | 13.12673 | 1090 ft | 170 kts | 214° |
| 2026-05-05 18:21 | 52.18107 | 13.11551 | 1340 ft | 179 kts | 214° |
| 2026-05-05 18:21 | 52.17072 | 13.10303 | 1665 ft | 192 kts | 216° |
| 2026-05-05 18:22 | 52.16039 | 13.08847 | 1986 ft | 206 kts | 232° |
| 2026-05-05 18:22 | 52.15427 | 13.06627 | 2012 ft | 232 kts | 253° |
| 2026-05-05 18:22 | 52.15122 | 13.03935 | 2016 ft | 253 kts | 268° |
| 2026-05-05 18:22 | 52.15260 | 13.00982 | 2022 ft | 270 kts | 282° |
| 2026-05-05 18:23 | 52.15730 | 12.97936 | 2018 ft | 285 kts | 287° |
| 2026-05-05 18:23 | 52.16253 | 12.94758 | 2101 ft | 292 kts | 286° |
| 2026-05-05 18:23 | 52.16761 | 12.91524 | 2557 ft | 302 kts | 285° |
| 2026-05-05 18:23 | 52.17260 | 12.88434 | 3422 ft | 263 kts | 285° |
| 2026-05-05 18:24 | 52.17754 | 12.85429 | 4030 ft | 299 kts | 285° |
| 2026-05-05 18:24 | 52.18323 | 12.82058 | 5457 ft | 307 kts | 285° |
| 2026-05-05 18:24 | 52.18908 | 12.78655 | 7082 ft | 315 kts | 285° |
| 2026-05-05 18:24 | 52.19515 | 12.75198 | 8710 ft | 319 kts | 285° |
| 2026-05-05 18:25 | 52.20152 | 12.71682 | 10214 ft | 329 kts | 285° |
| 2026-05-05 18:25 | 52.20600 | 12.69242 | 10755 ft | 347 kts | 285° |
| 2026-05-05 18:25 | 52.21890 | 12.64245 | 11889 ft | 377 kts | 298° |
| 2026-05-05 18:25 | 52.23351 | 12.60548 | 12645 ft | 399 kts | 303° |
| 2026-05-05 18:26 | 52.25006 | 12.56818 | 13694 ft | 406 kts | 304° |
| 2026-05-05 18:26 | 52.26629 | 12.52997 | 14658 ft | 413 kts | 301° |
| 2026-05-05 18:26 | 52.28192 | 12.49025 | 15642 ft | 418 kts | 301° |
| 2026-05-05 18:26 | 52.29793 | 12.45023 | 16608 ft | 423 kts | 302° |
| 2026-05-05 18:27 | 52.31462 | 12.41023 | 17521 ft | 429 kts | 302° |
| 2026-05-05 18:27 | 52.33147 | 12.36955 | 18354 ft | 434 kts | 302° |
| 2026-05-05 18:27 | 52.34804 | 12.32847 | 19292 ft | 432 kts | 301° |
| 2026-05-05 18:27 | 52.36454 | 12.28755 | 20361 ft | 429 kts | 301° |
| 2026-05-05 18:28 | 52.40430 | 12.21456 | 22447 ft | 431 kts | 313° |
| 2026-05-05 18:28 | 52.42649 | 12.18154 | 23492 ft | 429 kts | 314° |
| 2026-05-05 18:28 | 52.44872 | 12.14898 | 24339 ft | 428 kts | 314° |
| 2026-05-05 18:29 | 52.47107 | 12.11684 | 25252 ft | 427 kts | 315° |
| 2026-05-05 18:29 | 52.49325 | 12.08492 | 26203 ft | 422 kts | 314° |
| 2026-05-05 18:29 | 52.51526 | 12.05302 | 27034 ft | 421 kts | 314° |
| 2026-05-05 18:29 | 52.53705 | 12.02109 | 27918 ft | 419 kts | 313° |
| 2026-05-05 18:30 | 52.55879 | 11.98942 | 28794 ft | 417 kts | 313° |
| 2026-05-05 18:30 | 52.58049 | 11.95799 | 29670 ft | 414 kts | 313° |
| 2026-05-05 18:30 | 52.60201 | 11.92667 | 30432 ft | 412 kts | 313° |
| 2026-05-05 18:30 | 52.62314 | 11.89571 | 31114 ft | 410 kts | 312° |
| 2026-05-05 18:31 | 52.64436 | 11.86461 | 31799 ft | 408 kts | 312° |
| 2026-05-05 18:31 | 52.66561 | 11.83352 | 32470 ft | 406 kts | 312° |
| 2026-05-05 18:31 | 52.68666 | 11.80266 | 33114 ft | 404 kts | 311° |
| 2026-05-05 18:31 | 52.70765 | 11.77183 | 33737 ft | 403 kts | 311° |
| 2026-05-05 18:32 | 52.72850 | 11.74111 | 34313 ft | 399 kts | 311° |
| 2026-05-05 18:32 | 52.74862 | 11.71160 | 35267 ft | 385 kts | 311° |
| 2026-05-05 18:32 | 52.76831 | 11.68265 | 36185 ft | 373 kts | 311° |
| 2026-05-05 18:32 | 52.78737 | 11.65444 | 37034 ft | 363 kts | 311° |
| 2026-05-05 18:33 | 52.80600 | 11.62679 | 37724 ft | 358 kts | 312° |
| 2026-05-05 18:33 | 52.82451 | 11.59939 | 38333 ft | 354 kts | 312° |
| 2026-05-05 18:33 | 52.84289 | 11.57217 | 38727 ft | 355 kts | 312° |
| 2026-05-05 18:33 | 52.86117 | 11.54500 | 38917 ft | 360 kts | 312° |
| 2026-05-05 18:34 | 52.87995 | 11.51710 | 39112 ft | 365 kts | 313° |
| 2026-05-05 18:34 | 52.89906 | 11.48870 | 39267 ft | 371 kts | 313° |
| 2026-05-05 18:34 | 52.91838 | 11.45994 | 39434 ft | 376 kts | 313° |
| 2026-05-05 18:34 | 52.93793 | 11.43079 | 39617 ft | 380 kts | 313° |
| 2026-05-05 18:35 | 52.95774 | 11.40121 | 39807 ft | 385 kts | 313° |
| 2026-05-05 18:35 | 52.97777 | 11.37128 | 39930 ft | 390 kts | 313° |
| 2026-05-05 18:35 | 52.99793 | 11.34112 | 40260 ft | 389 kts | 313° |
| 2026-05-05 18:35 | 53.01800 | 11.31109 | 40592 ft | 388 kts | 313° |
| 2026-05-05 18:36 | 53.03810 | 11.28092 | 40865 ft | 389 kts | 313° |
| 2026-05-05 18:36 | 53.05821 | 11.25068 | 41138 ft | 390 kts | 313° |
| 2026-05-05 18:36 | 53.07833 | 11.22041 | 41410 ft | 390 kts | 314° |
| 2026-05-05 18:36 | 53.09853 | 11.18999 | 41678 ft | 391 kts | 314° |
| 2026-05-05 18:37 | 53.11831 | 11.16016 | 41933 ft | 391 kts | 314° |
| 2026-05-05 18:37 | 53.13877 | 11.12925 | 42191 ft | 392 kts | 314° |
| 2026-05-05 18:37 | 53.15865 | 11.09919 | 42450 ft | 392 kts | 314° |
| 2026-05-05 18:37 | 53.17891 | 11.06849 | 42618 ft | 395 kts | 314° |
| 2026-05-05 18:38 | 53.19933 | 11.03751 | 42727 ft | 399 kts | 314° |
| 2026-05-05 18:38 | 53.21992 | 11.00624 | 42838 ft | 402 kts | 314° |
| 2026-05-05 18:38 | 53.26183 | 10.94247 | 42904 ft | 413 kts | 314° |
| 2026-05-05 18:39 | 53.30490 | 10.87675 | 42905 ft | 424 kts | 314° |
| 2026-05-05 18:39 | 53.34901 | 10.80926 | 42905 ft | 434 kts | 314° |
| 2026-05-05 18:40 | 53.39395 | 10.74028 | 42919 ft | 442 kts | 314° |
| 2026-05-05 18:40 | 53.43954 | 10.67010 | 42907 ft | 447 kts | 314° |
| 2026-05-05 18:41 | 53.48545 | 10.59922 | 42908 ft | 450 kts | 314° |
| 2026-05-05 18:41 | 53.53126 | 10.52826 | 42914 ft | 451 kts | 314° |
| 2026-05-05 18:42 | 53.57733 | 10.45667 | 42913 ft | 448 kts | 314° |
| 2026-05-05 18:42 | 53.62286 | 10.38569 | 42534 ft | 449 kts | 314° |
| 2026-05-05 18:43 | 53.64580 | 10.34983 | 41844 ft | 449 kts | 314° |
| 2026-05-05 18:43 | 53.66861 | 10.31419 | 41118 ft | 445 kts | 313° |
| 2026-05-05 18:43 | 53.69123 | 10.27878 | 40408 ft | 441 kts | 313° |
| 2026-05-05 18:43 | 53.71364 | 10.24358 | 39666 ft | 440 kts | 313° |
| 2026-05-05 18:44 | 53.73604 | 10.20831 | 38968 ft | 438 kts | 313° |
| 2026-05-05 18:44 | 53.75828 | 10.17333 | 38238 ft | 436 kts | 312° |
| 2026-05-05 18:44 | 53.78044 | 10.13842 | 37429 ft | 435 kts | 311° |
| 2026-05-05 18:44 | 53.80255 | 10.10349 | 36674 ft | 435 kts | 311° |
| 2026-05-05 18:45 | 53.82463 | 10.06856 | 35786 ft | 434 kts | 310° |
| 2026-05-05 18:45 | 53.84668 | 10.03365 | 34936 ft | 433 kts | 310° |
| 2026-05-05 18:45 | 53.86865 | 9.99881 | 34077 ft | 433 kts | 309° |
| 2026-05-05 18:45 | 53.89068 | 9.96376 | 33024 ft | 435 kts | 309° |
| 2026-05-05 18:46 | 53.91272 | 9.92866 | 31986 ft | 436 kts | 310° |
| 2026-05-05 18:46 | 53.93486 | 9.89342 | 30986 ft | 436 kts | 310° |
| 2026-05-05 18:46 | 53.95697 | 9.85816 | 30014 ft | 436 kts | 311° |
| 2026-05-05 18:46 | 53.97905 | 9.82286 | 28928 ft | 435 kts | 311° |
| 2026-05-05 18:47 | 54.00094 | 9.78783 | 28090 ft | 429 kts | 311° |
| 2026-05-05 18:47 | 54.02259 | 9.75327 | 27352 ft | 425 kts | 311° |
| 2026-05-05 18:47 | 54.04418 | 9.71846 | 26639 ft | 429 kts | 311° |
| 2026-05-05 18:47 | 54.06588 | 9.68345 | 25936 ft | 430 kts | 311° |
| 2026-05-05 18:48 | 54.08765 | 9.64847 | 25253 ft | 430 kts | 312° |
| 2026-05-05 18:48 | 54.10938 | 9.61350 | 24587 ft | 429 kts | 312° |
| 2026-05-05 18:48 | 54.13099 | 9.57855 | 23936 ft | 427 kts | 312° |
| 2026-05-05 18:48 | 54.15250 | 9.54368 | 23258 ft | 426 kts | 312° |
| 2026-05-05 18:49 | 54.17392 | 9.50900 | 22501 ft | 424 kts | 312° |
| 2026-05-05 18:49 | 54.19504 | 9.47479 | 21776 ft | 423 kts | 312° |
| 2026-05-05 18:49 | 54.21654 | 9.43985 | 21046 ft | 420 kts | 312° |
| 2026-05-05 18:49 | 54.23728 | 9.40608 | 20355 ft | 413 kts | 313° |
| 2026-05-05 18:50 | 54.25773 | 9.37287 | 19659 ft | 389 kts | 313° |
| 2026-05-05 18:50 | 54.27705 | 9.34135 | 18980 ft | 377 kts | 313° |
| 2026-05-05 18:50 | 54.29552 | 9.31107 | 18322 ft | 368 kts | 313° |
| 2026-05-05 18:50 | 54.31403 | 9.28075 | 17564 ft | 360 kts | 313° |
| 2026-05-05 18:51 | 54.33196 | 9.25137 | 16830 ft | 354 kts | 313° |
| 2026-05-05 18:51 | 54.34951 | 9.22261 | 16110 ft | 341 kts | 313° |
| 2026-05-05 18:51 | 54.36604 | 9.19550 | 15407 ft | 327 kts | 313° |
| 2026-05-05 18:51 | 54.38219 | 9.16892 | 14710 ft | 320 kts | 313° |
| 2026-05-05 18:52 | 54.39855 | 9.14185 | 14030 ft | 333 kts | 313° |
| 2026-05-05 18:52 | 54.41532 | 9.11418 | 13327 ft | 335 kts | 313° |
| 2026-05-05 18:52 | 54.43181 | 9.08712 | 12596 ft | 321 kts | 314° |
| 2026-05-05 18:52 | 54.44760 | 9.06106 | 11873 ft | 310 kts | 314° |
| 2026-05-05 18:53 | 54.46285 | 9.03578 | 11167 ft | 301 kts | 314° |
| 2026-05-05 18:53 | 54.47775 | 9.01107 | 10497 ft | 294 kts | 314° |
| 2026-05-05 18:53 | 54.49240 | 8.98678 | 9922 ft | 293 kts | 314° |
| 2026-05-05 18:53 | 54.50710 | 8.96242 | 9510 ft | 293 kts | 314° |
| 2026-05-05 18:54 | 54.52169 | 8.93817 | 9108 ft | 289 kts | 314° |
| 2026-05-05 18:54 | 54.53608 | 8.91424 | 8705 ft | 286 kts | 315° |
| 2026-05-05 18:54 | 54.55022 | 8.89069 | 8316 ft | 281 kts | 315° |
| 2026-05-05 18:54 | 54.56420 | 8.86741 | 7930 ft | 278 kts | 315° |
| 2026-05-05 18:55 | 54.57801 | 8.84437 | 7546 ft | 275 kts | 315° |
| 2026-05-05 18:55 | 54.59166 | 8.82156 | 7167 ft | 273 kts | 316° |
| 2026-05-05 18:55 | 54.60530 | 8.79877 | 6794 ft | 274 kts | 316° |
| 2026-05-05 18:55 | 54.61911 | 8.77568 | 6423 ft | 278 kts | 316° |
| 2026-05-05 18:56 | 54.62848 | 8.76002 | 6167 ft | 277 kts | 317° |
| 2026-05-05 18:56 | 54.64231 | 8.73684 | 5830 ft | 277 kts | 317° |
| 2026-05-05 18:56 | 54.65615 | 8.71361 | 5517 ft | 277 kts | 317° |
| 2026-05-05 18:56 | 54.66980 | 8.69070 | 5213 ft | 277 kts | 317° |
| 2026-05-05 18:57 | 54.68345 | 8.66775 | 4907 ft | 267 kts | 318° |
| 2026-05-05 18:57 | 54.69635 | 8.64602 | 4597 ft | 252 kts | 318° |
| 2026-05-05 18:57 | 54.70862 | 8.62518 | 4267 ft | 242 kts | 317° |
| 2026-05-05 18:57 | 54.72040 | 8.60509 | 3942 ft | 234 kts | 317° |
| 2026-05-05 18:58 | 54.73180 | 8.58542 | 3616 ft | 232 kts | 316° |
| 2026-05-05 18:58 | 54.74177 | 8.56243 | 3297 ft | 244 kts | 307° |
| 2026-05-05 18:58 | 54.75268 | 8.53972 | 3002 ft | 246 kts | 320° |
| 2026-05-05 18:58 | 54.76600 | 8.52184 | 2998 ft | 241 kts | 329° |
| 2026-05-05 18:59 | 54.77923 | 8.50601 | 2994 ft | 223 kts | 328° |
| 2026-05-05 18:59 | 54.79182 | 8.49047 | 2798 ft | 220 kts | 327° |
| 2026-05-05 18:59 | 54.80411 | 8.47526 | 2505 ft | 214 kts | 329° |
| 2026-05-05 18:59 | 54.81615 | 8.46056 | 2213 ft | 209 kts | 328° |
| 2026-05-05 19:00 | 54.82781 | 8.44598 | 1932 ft | 205 kts | 329° |
| 2026-05-05 19:00 | 54.83929 | 8.43202 | 1659 ft | 193 kts | 329° |
| 2026-05-05 19:00 | 54.84939 | 8.41926 | 1397 ft | 167 kts | 330° |
| 2026-05-05 19:00 | 54.85829 | 8.40845 | 1166 ft | 146 kts | 331° |
| 2026-05-05 19:01 | 54.86611 | 8.39874 | 970 ft | 131 kts | 330° |
| 2026-05-05 19:01 | 54.87340 | 8.38973 | 789 ft | 127 kts | 329° |
| 2026-05-05 19:01 | 54.88045 | 8.38097 | 620 ft | 124 kts | 329° |
| 2026-05-05 19:01 | 54.88754 | 8.37221 | 474 ft | 125 kts | 330° |
| 2026-05-05 19:02 | 54.89465 | 8.36349 | 305 ft | 123 kts | 329° |
| 2026-05-05 19:02 | 54.90151 | 8.35502 | 128 ft | 121 kts | 329° |
| 2026-05-05 19:02 | 54.90811 | 8.34685 | 30 ft | 94 kts | 324° |
| 2026-05-05 19:02 | 54.91151 | 8.34259 | 36 ft | 39 kts | 323° |
| 2026-05-05 19:03 | 54.91299 | 8.34075 | 33 ft | 14 kts | 321° |
| 2026-05-05 19:03 | 54.91282 | 8.33926 | 30 ft | 18 kts | 240° |
| 2026-05-05 19:03 | 54.91208 | 8.33707 | 26 ft | 22 kts | 239° |
| 2026-05-05 19:03 | 54.91133 | 8.33485 | 19 ft | 21 kts | 239° |
| 2026-05-05 19:04 | 54.91068 | 8.33290 | 20 ft | 17 kts | 238° |
| 2026-05-05 19:04 | 54.91017 | 8.33111 | 20 ft | 15 kts | 252° |
| 2026-05-05 19:04 | 54.91035 | 8.32955 | 22 ft | 13 kts | 311° |
| 2026-05-05 19:04 | 54.91083 | 8.32862 | 24 ft | 10 kts | 309° |
| 2026-05-05 19:05 | 54.91141 | 8.32750 | 19 ft | 11 kts | 309° |
| 2026-05-05 19:05 | 54.91188 | 8.32645 | 19 ft | 11 kts | 317° |
| 2026-05-05 19:05 | 54.91230 | 8.32570 | 19 ft | 7 kts | 258° |
| 2026-05-05 19:05 | 54.91223 | 8.32548 | 19 ft | 0 kts | 239° |